Gibsonia, PA (15044)

6:09 PM EST on January 31, 2015 (GMT -0500)
Bakerstown | Change Station
CLOSE
Current Station
Personal Weather Station
Location: Bakerstown, PA
Elevation: 1090 ft
Nearby Weather Stations
Active Advisory: Winter Weather Advisory Active Notice: Local Storm Report

Elev 1090 ft 40.65 °N, 79.93 °W | Updated 7 minutes ago

Clear
Clear
24.9 °F
Feels Like 25 °F
N
0.0
Wind Variable Wind from SW
Gusts 2.0 mph

Today
High -- | Low -- °F
--% Chance of Precip.
Yesterday
High -- | Low -- °F
Precip. -- in
7:30 AM 5:36 PM
Waxing Gibbous, 92% visible
Pressure 30.24 in
Visibility 10.0 miles
Clouds Clear
Windchill 25 °F
Dew Point 16 °F
Humidity 69%
Rainfall 0.02 in
Snow Depth Not available.
UV 0 out of 12
Pollen .10 out of 12
Air Quality Not available.
Flu Activity Not available.
METAR KBTP 312255Z AUTO 21006KT 10SM CLR M04/M11 A3024 RMK AO1

More Conditions Fewer Conditions

Pressure 30.24 in
Visibility 10.0 miles
Clouds Clear
Windchill 25 °F
Dew Point 16 °F
Humidity 69%
Rainfall 0.02 in
Snow Depth Not available.
UV 0 out of 12
Pollen .10 out of 12
Air Quality Not available.
Flu Activity Not available.
METAR KBTP 312255Z AUTO 21006KT 10SM CLR M04/M11 A3024 RMK AO1

More Conditions Fewer Conditions

10-Day Weather Forecast

Almanac

Astronomy

Jan. 31, 2015 Rise Set
Actual Time
Civil Twilight
Nautical Twilight
Astronomical Twilight
Moon
Length of Visible Light
Length of Day
Tomorrow will be .
, % of the Moon is Illuminated

Today's Extremes

State Highs State Lows

Community

WunderPhotos

Upload Photos

1,792,245 photos uploaded!

WunderBlogs® & News

Nearby

Air Quality

  Air Quality AQ Index Pollutant
Not available.

Snow Depth

Station Depth Elevation

Earthquake Activity

City Distance Mag. Time & Date
Minimum magnitude displayed is 2.5.

Coastal Water Temperatures

Place Temperature

Nearby Weather Stations